createdAt,value
2018-06-12T00:03:06.138Z,14.80
2018-06-12T00:12:33.720Z,28.90
2018-06-12T00:18:07.634Z,15.73
2018-06-12T00:20:53.686Z,14.93
2018-06-12T00:27:00.816Z,15.07
2018-06-12T00:29:45.401Z,20.00
2018-06-12T00:36:20.500Z,16.53
2018-06-12T00:41:56.968Z,17.27
2018-06-12T00:44:53.017Z,19.13
2018-06-12T00:50:19.621Z,18.13
2018-06-12T00:53:01.221Z,17.60
2018-06-12T01:02:21.135Z,18.87
2018-06-12T01:11:04.111Z,22.10
2018-06-12T01:14:05.466Z,19.27
2018-06-12T01:17:13.924Z,22.20
2018-06-12T01:19:57.258Z,21.13
2018-06-12T01:22:48.613Z,19.73
2018-06-12T01:34:26.031Z,21.17
2018-06-12T01:37:01.306Z,20.97
2018-06-12T01:39:42.742Z,20.70
2018-06-12T01:42:17.521Z,20.92
2018-06-12T01:44:55.942Z,19.80
2018-06-12T01:47:31.480Z,27.17
2018-06-12T01:50:11.413Z,20.90
2018-06-12T01:52:52.529Z,20.93
2018-06-12T02:00:56.870Z,23.27
2018-06-12T02:03:37.939Z,19.77
2018-06-12T02:06:12.901Z,24.17
2018-06-12T02:08:47.034Z,18.23
2018-06-12T02:11:31.732Z,22.57
2018-06-12T02:19:34.159Z,20.10
2018-06-12T02:22:10.883Z,18.70
2018-06-12T02:24:47.324Z,20.23
2018-06-12T02:27:25.893Z,21.60
2018-06-12T02:30:07.237Z,19.33
2018-06-12T02:32:49.196Z,20.63
2018-06-12T02:35:28.081Z,24.67
2018-06-12T02:38:03.081Z,23.60
2018-06-12T02:40:52.239Z,22.97
2018-06-12T02:43:30.945Z,22.03
2018-06-12T02:46:07.573Z,28.67
2018-06-12T02:48:47.622Z,30.03
2018-06-12T02:51:26.073Z,23.20
2018-06-12T02:54:03.158Z,25.43
2018-06-12T02:56:41.740Z,30.77
2018-06-12T02:59:21.216Z,27.30
2018-06-12T03:02:07.463Z,27.47
2018-06-12T03:04:52.736Z,32.40
2018-06-12T03:07:38.322Z,25.77
2018-06-12T03:10:18.335Z,23.57
2018-06-12T03:15:47.176Z,24.83
2018-06-12T03:18:38.969Z,28.63
2018-06-12T03:21:16.901Z,24.37
2018-06-12T03:23:54.069Z,23.70
2018-06-12T03:26:34.099Z,35.03
2018-06-12T03:29:15.486Z,24.90
2018-06-12T03:31:56.074Z,22.70
2018-06-12T03:34:37.158Z,27.37
2018-06-12T03:37:12.895Z,23.67
2018-06-12T03:40:01.085Z,25.45
2018-06-12T03:45:19.040Z,27.13
2018-06-12T03:50:59.997Z,25.83
2018-06-12T03:53:42.611Z,22.47
2018-06-12T03:56:29.517Z,21.50
2018-06-12T03:59:08.893Z,23.40
2018-06-12T04:09:42.437Z,21.70
2018-06-12T04:12:23.634Z,23.67
2018-06-12T04:15:11.774Z,24.70
2018-06-12T04:17:57.792Z,24.80
2018-06-12T04:20:40.111Z,21.87
2018-06-12T04:23:19.121Z,27.73
2018-06-12T04:26:13.531Z,22.20
2018-06-12T04:29:08.360Z,22.67
2018-06-12T04:41:11.809Z,21.03
2018-06-12T04:44:58.632Z,17.23
2018-06-12T04:47:41.979Z,17.00
2018-06-12T23:53:09.229Z,3.50
2018-06-12T23:55:53.231Z,2.63
2018-06-12T23:58:33.951Z,2.90
